Time,TemperatureF,DewpointF,PressureIn,WindDirection,WindDirectionDegrees,WindSpeedMPH,WindSpeedGustMPH,Humidity,HourlyPrecipIn,Conditions,Clouds,dailyrainin,SoftwareType,DateUTC
2013-06-09 00:04:00,72.0,67.9,30.08,SW,221,2.0,0.0,87,0.00,,SKC,0.00,VWS V14.01,2013-06-09 04:04:00,
2013-06-09 00:05:00,72.0,67.9,30.08,SW,217,0.0,0.0,87,0.00,,SKC,0.00,VWS V14.01,2013-06-09 04:05:00,
2013-06-09 00:06:00,72.0,67.9,30.08,SSW,198,0.0,0.0,87,0.00,,SKC,0.00,VWS V14.01,2013-06-09 04:06:00,
2013-06-09 00:10:00,71.9,67.8,30.08,SW,217,2.0,0.0,87,0.00,,SKC,0.00,VWS V14.01,2013-06-09 04:10:00,
2013-06-09 00:15:00,71.8,67.7,30.08,SW,221,2.0,0.0,87,0.00,,SKC,0.00,VWS V14.01,2013-06-09 04:15:00,
2013-06-09 00:20:00,71.8,68.1,30.08,SW,218,2.0,0.0,88,0.00,,SKC,0.00,VWS V14.01,2013-06-09 04:20:00,
2013-06-09 00:26:00,71.7,68.0,30.08,SW,228,1.0,0.0,88,0.00,,SKC,0.00,VWS V14.01,2013-06-09 04:26:00,
2013-06-09 00:32:00,71.6,67.9,30.08,WSW,238,0.0,0.0,88,0.00,,SKC,0.00,VWS V14.01,2013-06-09 04:32:00,
2013-06-09 00:38:00,71.5,68.1,30.08,WSW,237,2.0,0.0,89,0.00,,SKC,0.00,VWS V14.01,2013-06-09 04:38:00,
2013-06-09 00:44:00,71.5,68.1,30.08,SW,215,1.0,0.0,89,0.00,,SKC,0.00,VWS V14.01,2013-06-09 04:44:00,
2013-06-09 00:50:00,71.2,67.8,30.08,South,190,2.0,0.0,89,0.00,,SKC,0.00,VWS V14.01,2013-06-09 04:50:00,
2013-06-09 00:55:00,71.1,68.0,30.08,South,191,3.0,0.0,90,0.00,,SKC,0.00,VWS V14.01,2013-06-09 04:55:00,
2013-06-09 01:00:00,70.9,67.8,30.08,SE,127,0.0,0.0,90,0.00,,SKC,0.00,VWS V14.01,2013-06-09 05:00:00,
2013-06-09 01:05:00,70.6,67.5,30.08,South,172,0.0,0.0,90,0.00,,SKC,0.00,VWS V14.01,2013-06-09 05:05:00,
2013-06-09 01:10:00,70.4,67.7,30.08,SSW,212,0.0,0.0,91,0.00,,SKC,0.00,VWS V14.01,2013-06-09 05:10:00,
2013-06-09 01:15:00,70.2,67.4,30.09,SSW,212,0.0,0.0,91,0.00,,SKC,0.00,VWS V14.01,2013-06-09 05:15:00,
2013-06-09 01:20:00,70.1,67.7,30.09,SW,233,0.0,0.0,92,0.00,,SKC,0.00,VWS V14.01,2013-06-09 05:20:00,
2013-06-09 01:25:00,70.0,67.6,30.09,South,181,0.0,0.0,92,0.00,,SKC,0.00,VWS V14.01,2013-06-09 05:25:00,
2013-06-09 01:31:00,69.9,67.5,30.09,SSW,210,0.0,0.0,92,0.00,,SKC,0.00,VWS V14.01,2013-06-09 05:31:00,
2013-06-09 01:37:00,69.9,67.8,30.09,SW,236,0.0,0.0,93,0.00,,SKC,0.00,VWS V14.01,2013-06-09 05:37:00,
2013-06-09 01:43:00,69.9,67.8,30.08,SSW,204,0.0,0.0,93,0.00,,SKC,0.00,VWS V14.01,2013-06-09 05:43:00,
2013-06-09 01:49:00,69.8,67.7,30.08,SW,226,0.0,0.0,93,0.00,,SKC,0.00,VWS V14.01,2013-06-09 05:49:00,
2013-06-09 01:55:00,69.7,67.6,30.08,South,191,0.0,0.0,93,0.00,,SKC,0.00,VWS V14.01,2013-06-09 05:55:00,
2013-06-09 02:00:00,69.7,67.6,30.08,SW,226,0.0,0.0,93,0.00,,SKC,0.00,VWS V14.01,2013-06-09 06:00:00,
2013-06-09 02:07:00,69.7,67.9,30.08,SSW,207,0.0,0.0,94,0.00,,SKC,0.00,VWS V14.01,2013-06-09 06:07:00,
2013-06-09 02:13:00,69.5,67.4,30.07,SSW,207,0.0,0.0,93,0.00,,SKC,0.00,VWS V14.01,2013-06-09 06:13:00,
2013-06-09 02:19:00,69.3,67.5,30.07,SSW,207,0.0,0.0,94,0.00,,SKC,0.00,VWS V14.01,2013-06-09 06:19:00,
2013-06-09 02:25:00,69.1,67.3,30.07,SSW,207,0.0,0.0,94,0.00,,SKC,0.00,VWS V14.01,2013-06-09 06:25:00,
2013-06-09 02:30:00,68.8,67.0,30.07,SSW,207,0.0,0.0,94,0.00,,SKC,0.00,VWS V14.01,2013-06-09 06:30:00,
2013-06-09 02:37:00,68.4,66.6,30.07,SSW,207,0.0,0.0,94,0.00,,SKC,0.00,VWS V14.01,2013-06-09 06:37:00,
2013-06-09 02:43:00,68.3,66.5,30.06,SSW,207,0.0,0.0,94,0.00,,SKC,0.00,VWS V14.01,2013-06-09 06:43:00,
2013-06-09 02:49:00,68.2,66.7,30.06,SSW,207,0.0,0.0,95,0.00,,SKC,0.00,VWS V14.01,2013-06-09 06:49:00,
2013-06-09 02:55:00,68.2,66.7,30.07,SSW,207,0.0,0.0,95,0.00,,SKC,0.00,VWS V14.01,2013-06-09 06:55:00,
2013-06-09 03:00:00,68.0,66.5,30.08,SSW,207,0.0,0.0,95,0.00,,SKC,0.00,VWS V14.01,2013-06-09 07:00:00,
2013-06-09 03:05:00,67.7,66.2,30.08,SSW,207,0.0,0.0,95,0.00,,SKC,0.00,VWS V14.01,2013-06-09 07:05:00,
2013-06-09 03:11:00,67.5,66.0,30.08,SSW,207,0.0,0.0,95,0.00,,SKC,0.00,VWS V14.01,2013-06-09 07:11:00,
2013-06-09 03:17:00,67.5,66.3,30.08,SSW,207,0.0,0.0,96,0.00,,SKC,0.00,VWS V14.01,2013-06-09 07:17:00,
2013-06-09 03:23:00,67.3,66.1,30.08,SSW,207,0.0,0.0,96,0.00,,SKC,0.00,VWS V14.01,2013-06-09 07:23:00,
2013-06-09 03:30:00,67.1,65.9,30.08,SSW,207,0.0,0.0,96,0.00,,SKC,0.00,VWS V14.01,2013-06-09 07:30:00,
2013-06-09 03:35:00,67.0,65.8,30.08,SSW,207,0.0,0.0,96,0.00,,SKC,0.00,VWS V14.01,2013-06-09 07:35:00,
2013-06-09 03:40:00,66.8,65.6,30.08,SSW,207,0.0,0.0,96,0.00,,SKC,0.00,VWS V14.01,2013-06-09 07:40:00,
2013-06-09 03:45:00,66.6,65.4,30.08,SSW,207,0.0,0.0,96,0.00,,SKC,0.00,VWS V14.01,2013-06-09 07:45:00,
2013-06-09 03:52:00,66.4,65.2,30.08,SSW,207,0.0,0.0,96,0.00,,SKC,0.00,VWS V14.01,2013-06-09 07:52:00,
2013-06-09 03:58:00,66.2,65.0,30.08,SSW,207,0.0,0.0,96,0.00,,SKC,0.00,VWS V14.01,2013-06-09 07:58:00,
2013-06-09 04:04:00,66.0,64.8,30.08,SSW,207,0.0,0.0,96,0.00,,SKC,0.00,VWS V14.01,2013-06-09 08:04:00,
2013-06-09 04:10:00,66.0,64.8,30.09,SSW,207,0.0,0.0,96,0.00,,SKC,0.00,VWS V14.01,2013-06-09 08:10:00,
2013-06-09 04:15:00,66.2,65.3,30.09,SSW,207,0.0,0.0,97,0.00,,SKC,0.00,VWS V14.01,2013-06-09 08:15:00,
2013-06-09 04:20:00,66.2,65.3,30.09,SSW,207,0.0,0.0,97,0.00,,SKC,0.00,VWS V14.01,2013-06-09 08:20:00,
2013-06-09 04:25:00,65.9,64.7,30.09,SSW,207,0.0,0.0,96,0.00,,SKC,0.00,VWS V14.01,2013-06-09 08:25:00,
2013-06-09 04:30:00,65.9,65.0,30.09,SSW,207,0.0,0.0,97,0.00,,SKC,0.00,VWS V14.01,2013-06-09 08:30:00,
2013-06-09 04:35:00,65.8,64.9,30.09,SSW,207,0.0,0.0,97,0.00,,SKC,0.00,VWS V14.01,2013-06-09 08:35:00,
2013-06-09 04:40:00,65.9,65.0,30.09,SSW,207,0.0,0.0,97,0.00,,SKC,0.00,VWS V14.01,2013-06-09 08:40:00,
2013-06-09 04:45:00,65.8,64.9,30.09,SSW,207,0.0,0.0,97,0.00,,SKC,0.00,VWS V14.01,2013-06-09 08:45:00,
2013-06-09 04:50:00,65.5,64.6,30.09,SSW,207,0.0,0.0,97,0.00,,SKC,0.00,VWS V14.01,2013-06-09 08:50:00,
2013-06-09 04:55:00,65.5,64.6,30.09,SSW,207,0.0,0.0,97,0.00,,SKC,0.00,VWS V14.01,2013-06-09 08:55:00,
2013-06-09 05:01:00,65.4,64.5,30.09,SSW,207,0.0,0.0,97,0.00,,SKC,0.00,VWS V14.01,2013-06-09 09:01:00,
2013-06-09 05:07:00,65.2,64.3,30.09,SSW,207,0.0,0.0,97,0.00,,SKC,0.00,VWS V14.01,2013-06-09 09:07:00,
2013-06-09 05:13:00,65.1,64.2,30.10,SSW,207,0.0,0.0,97,0.00,,SKC,0.00,VWS V14.01,2013-06-09 09:13:00,
2013-06-09 05:19:00,65.1,64.2,30.10,SSW,207,0.0,0.0,97,0.00,,SKC,0.00,VWS V14.01,2013-06-09 09:19:00,
2013-06-09 05:25:00,65.2,64.6,30.10,SSW,207,0.0,0.0,98,0.00,,SKC,0.00,VWS V14.01,2013-06-09 09:25:00,
2013-06-09 05:30:00,65.2,64.6,30.10,SSW,207,0.0,0.0,98,0.00,,SKC,0.00,VWS V14.01,2013-06-09 09:30:00,
2013-06-09 05:35:00,65.1,64.2,30.10,SSW,207,0.0,0.0,97,0.00,,SKC,0.00,VWS V14.01,2013-06-09 09:35:00,
2013-06-09 05:41:00,64.9,64.0,30.10,SSW,207,0.0,0.0,97,0.00,,SKC,0.00,VWS V14.01,2013-06-09 09:41:00,
2013-06-09 05:47:00,64.7,63.8,30.10,SSW,207,0.0,0.0,97,0.00,,SKC,0.00,VWS V14.01,2013-06-09 09:47:00,
2013-06-09 05:53:00,64.5,63.6,30.10,SSW,207,0.0,0.0,97,0.00,,SKC,0.00,VWS V14.01,2013-06-09 09:53:00,
2013-06-09 05:59:00,64.5,63.9,30.10,SSW,207,0.0,0.0,98,0.00,,SKC,0.00,VWS V14.01,2013-06-09 09:59:00,
2013-06-09 06:05:00,64.6,64.0,30.11,SSW,207,0.0,0.0,98,0.00,,SKC,0.00,VWS V14.01,2013-06-09 10:05:00,
2013-06-09 06:10:00,64.9,64.3,30.11,SSW,207,0.0,0.0,98,0.00,,SKC,0.00,VWS V14.01,2013-06-09 10:10:00,
2013-06-09 06:15:00,65.1,64.5,30.11,SSW,207,0.0,0.0,98,0.00,,SKC,0.00,VWS V14.01,2013-06-09 10:15:00,
2013-06-09 06:20:00,65.0,64.4,30.11,SE,132,0.0,0.0,98,0.00,,SKC,0.00,VWS V14.01,2013-06-09 10:20:00,
2013-06-09 06:25:00,64.9,64.3,30.11,SE,133,0.0,0.0,98,0.00,,SKC,0.00,VWS V14.01,2013-06-09 10:25:00,
2013-06-09 06:31:00,64.9,64.3,30.11,SE,132,0.0,0.0,98,0.00,,SKC,0.00,VWS V14.01,2013-06-09 10:31:00,
2013-06-09 06:37:00,65.1,64.5,30.11,SE,132,0.0,0.0,98,0.00,,SKC,0.00,VWS V14.01,2013-06-09 10:37:00,
2013-06-09 06:43:00,65.3,64.7,30.11,SE,133,0.0,0.0,98,0.00,,SKC,0.00,VWS V14.01,2013-06-09 10:43:00,
2013-06-09 06:50:00,65.7,65.1,30.12,SW,226,1.0,0.0,98,0.00,,SKC,0.00,VWS V14.01,2013-06-09 10:50:00,
2013-06-09 06:55:00,66.3,66.0,30.12,WSW,239,0.0,0.0,99,0.00,,SKC,0.00,VWS V14.01,2013-06-09 10:55:00,
2013-06-09 07:00:00,66.7,66.4,30.12,WSW,239,0.0,0.0,99,0.00,,SKC,0.00,VWS V14.01,2013-06-09 11:00:00,
2013-06-09 07:06:00,67.0,66.7,30.12,South,179,0.0,0.0,99,0.00,,SKC,0.00,VWS V14.01,2013-06-09 11:06:00,
2013-06-09 07:12:00,67.3,67.0,30.12,SW,224,0.0,0.0,99,0.00,,SKC,0.00,VWS V14.01,2013-06-09 11:12:00,
2013-06-09 07:18:00,67.6,67.3,30.13,WSW,238,0.0,0.0,99,0.00,,SKC,0.00,VWS V14.01,2013-06-09 11:18:00,
2013-06-09 07:24:00,67.8,67.5,30.13,SW,235,0.0,0.0,99,0.00,,SKC,0.00,VWS V14.01,2013-06-09 11:24:00,
2013-06-09 07:30:00,68.1,67.8,30.13,SSW,203,1.0,0.0,99,0.00,,SKC,0.00,VWS V14.01,2013-06-09 11:30:00,
2013-06-09 07:35:00,68.3,68.0,30.13,SSE,148,0.0,0.0,99,0.00,,SKC,0.00,VWS V14.01,2013-06-09 11:35:00,
2013-06-09 07:40:00,68.4,67.8,30.13,SW,223,2.0,0.0,98,0.00,,SKC,0.00,VWS V14.01,2013-06-09 11:40:00,
2013-06-09 07:45:00,68.7,68.4,30.13,SSW,205,1.0,0.0,99,0.00,,SKC,0.00,VWS V14.01,2013-06-09 11:45:00,
2013-06-09 07:50:00,68.9,68.6,30.14,East,96,0.0,0.0,99,0.00,,SKC,0.00,VWS V14.01,2013-06-09 11:50:00,
2013-06-09 07:55:00,69.4,69.1,30.14,SW,222,3.0,0.0,99,0.00,,SKC,0.00,VWS V14.01,2013-06-09 11:55:00,
2013-06-09 08:00:00,69.7,69.1,30.14,SW,219,2.0,0.0,98,0.00,,SKC,0.00,VWS V14.01,2013-06-09 12:00:00,
2013-06-09 08:06:00,70.1,69.5,30.14,SSW,207,0.0,0.0,98,0.00,,SKC,0.00,VWS V14.01,2013-06-09 12:06:00,
2013-06-09 08:12:00,70.8,69.9,30.14,SW,214,0.0,0.0,97,0.00,,SKC,0.00,VWS V14.01,2013-06-09 12:12:00,
2013-06-09 08:18:00,71.6,70.1,30.14,SW,219,3.0,0.0,95,0.00,,SKC,0.00,VWS V14.01,2013-06-09 12:18:00,
2013-06-09 08:24:00,72.2,70.4,30.14,WSW,257,2.0,0.0,94,0.00,,SKC,0.00,VWS V14.01,2013-06-09 12:24:00,
2013-06-09 08:30:00,72.4,69.9,30.14,SSW,200,0.0,0.0,92,0.00,,SKC,0.00,VWS V14.01,2013-06-09 12:30:00,
2013-06-09 08:35:00,72.6,70.2,30.15,SSW,194,2.0,0.0,92,0.00,,SKC,0.00,VWS V14.01,2013-06-09 12:35:00,
2013-06-09 08:40:00,73.2,70.4,30.15,SSE,155,0.0,0.0,91,0.00,,SKC,0.00,VWS V14.01,2013-06-09 12:40:00,
2013-06-09 08:45:00,73.6,70.8,30.15,SSW,198,3.0,0.0,91,0.00,,SKC,0.00,VWS V14.01,2013-06-09 12:45:00,
2013-06-09 08:50:00,73.9,71.1,30.15,SE,132,2.0,0.0,91,0.00,,SKC,0.00,VWS V14.01,2013-06-09 12:50:00,
2013-06-09 08:55:00,74.1,71.0,30.15,SW,217,5.0,0.0,90,0.00,,SKC,0.00,VWS V14.01,2013-06-09 12:55:00,
2013-06-09 09:00:00,74.3,70.8,30.15,ENE,75,0.0,0.0,89,0.00,,SKC,0.00,VWS V14.01,2013-06-09 13:00:00,
2013-06-09 09:06:00,74.6,71.2,30.15,SSW,203,0.0,0.0,89,0.00,,SKC,0.00,VWS V14.01,2013-06-09 13:06:00,
2013-06-09 09:13:00,75.1,71.3,30.15,SSW,203,3.0,0.0,88,0.00,,SKC,0.00,VWS V14.01,2013-06-09 13:13:00,
2013-06-09 09:19:00,75.9,71.8,30.15,WSW,249,2.0,0.0,87,0.00,,SKC,0.00,VWS V14.01,2013-06-09 13:19:00,
2013-06-09 09:25:00,76.4,71.9,30.15,SSW,203,0.0,0.0,86,0.00,,SKC,0.00,VWS V14.01,2013-06-09 13:25:00,
2013-06-09 09:30:00,77.0,71.4,30.15,West,262,2.0,0.0,83,0.00,,SKC,0.00,VWS V14.01,2013-06-09 13:30:00,
2013-06-09 09:35:00,77.5,72.3,30.15,East,94,0.0,0.0,84,0.00,,SKC,0.00,VWS V14.01,2013-06-09 13:35:00,
2013-06-09 09:40:00,77.8,71.5,30.15,SW,228,0.0,0.0,81,0.00,,SKC,0.00,VWS V14.01,2013-06-09 13:40:00,
2013-06-09 09:45:00,78.4,72.4,30.15,West,265,0.0,0.0,82,0.00,,SKC,0.00,VWS V14.01,2013-06-09 13:45:00,
2013-06-09 09:50:00,78.9,72.6,30.14,SW,228,3.0,0.0,81,0.00,,SKC,0.00,VWS V14.01,2013-06-09 13:50:00,
2013-06-09 09:55:00,79.2,72.1,30.14,SSW,195,1.0,0.0,79,0.00,,SKC,0.00,VWS V14.01,2013-06-09 13:55:00,
2013-06-09 10:00:00,79.6,72.5,30.14,SSW,204,0.0,0.0,79,0.00,,SKC,0.00,VWS V14.01,2013-06-09 14:00:00,
2013-06-09 10:05:00,80.2,72.7,30.14,West,273,1.0,0.0,78,0.00,,SKC,0.00,VWS V14.01,2013-06-09 14:05:00,
2013-06-09 10:10:00,80.3,73.2,30.14,West,263,0.0,0.0,79,0.00,,SKC,0.00,VWS V14.01,2013-06-09 14:10:00,
2013-06-09 10:15:00,80.6,71.6,30.14,South,184,0.0,0.0,74,0.00,,SKC,0.00,VWS V14.01,2013-06-09 14:15:00,
2013-06-09 10:20:00,80.8,71.7,30.14,SSW,198,2.0,0.0,74,0.00,,SKC,0.00,VWS V14.01,2013-06-09 14:20:00,
2013-06-09 10:25:00,81.0,71.9,30.14,WSW,255,3.0,0.0,74,0.00,,SKC,0.00,VWS V14.01,2013-06-09 14:25:00,
2013-06-09 10:30:00,81.0,72.3,30.13,SE,139,1.0,0.0,75,0.00,,SKC,0.00,VWS V14.01,2013-06-09 14:30:00,
2013-06-09 10:35:00,81.6,72.5,30.14,WSW,242,2.0,0.0,74,0.00,,SKC,0.00,VWS V14.01,2013-06-09 14:35:00,
2013-06-09 10:40:00,82.1,72.2,30.14,SE,124,1.0,0.0,72,0.00,,SKC,0.00,VWS V14.01,2013-06-09 14:40:00,
2013-06-09 10:45:00,82.4,71.6,30.14,SW,222,0.0,0.0,70,0.00,,SKC,0.00,VWS V14.01,2013-06-09 14:45:00,
2013-06-09 10:50:00,82.5,70.9,30.13,SSW,197,3.0,0.0,68,0.00,,SKC,0.00,VWS V14.01,2013-06-09 14:50:00,
2013-06-09 10:55:00,82.2,71.9,30.13,SSW,207,4.0,0.0,71,0.00,,SKC,0.00,VWS V14.01,2013-06-09 14:55:00,
2013-06-09 11:00:00,82.1,70.9,30.13,South,184,0.0,0.0,69,0.00,,SKC,0.00,VWS V14.01,2013-06-09 15:00:00,
2013-06-09 11:05:00,82.5,71.3,30.13,SW,218,2.0,0.0,69,0.00,,SKC,0.00,VWS V14.01,2013-06-09 15:05:00,
2013-06-09 11:11:00,83.0,71.4,30.13,ESE,121,0.0,0.0,68,0.00,,SKC,0.00,VWS V14.01,2013-06-09 15:11:00,
2013-06-09 11:17:00,83.3,71.6,30.13,ENE,78,1.0,0.0,68,0.00,,SKC,0.00,VWS V14.01,2013-06-09 15:17:00,
2013-06-09 11:23:00,83.3,71.2,30.13,East,86,7.0,0.0,67,0.00,,SKC,0.00,VWS V14.01,2013-06-09 15:23:00,
2013-06-09 11:29:00,82.8,69.8,30.13,SE,126,2.0,0.0,65,0.00,,SKC,0.00,VWS V14.01,2013-06-09 15:29:00,
2013-06-09 11:35:00,83.0,70.5,30.13,South,187,0.0,0.0,66,0.00,,SKC,0.00,VWS V14.01,2013-06-09 15:35:00,
2013-06-09 11:40:00,83.2,69.8,30.13,South,188,1.0,0.0,64,0.00,,SKC,0.00,VWS V14.01,2013-06-09 15:40:00,
2013-06-09 11:45:00,83.4,70.4,30.13,ESE,110,3.0,0.0,65,0.00,,SKC,0.00,VWS V14.01,2013-06-09 15:45:00,
2013-06-09 11:50:00,83.5,69.6,30.13,East,82,3.0,0.0,63,0.00,,SKC,0.00,VWS V14.01,2013-06-09 15:50:00,
2013-06-09 11:55:00,83.6,69.7,30.13,SSE,167,1.0,0.0,63,0.00,,SKC,0.00,VWS V14.01,2013-06-09 15:55:00,
2013-06-09 12:03:00,84.0,70.1,30.13,SSE,148,3.0,0.0,63,0.00,,SKC,0.00,VWS V14.01,2013-06-09 16:03:00,
2013-06-09 12:09:00,84.2,70.2,30.13,SSW,203,0.0,0.0,63,0.00,,SKC,0.00,VWS V14.01,2013-06-09 16:09:00,
2013-06-09 12:15:00,84.6,69.7,30.12,SSE,165,1.0,0.0,61,0.00,,SKC,0.00,VWS V14.01,2013-06-09 16:15:00,
2013-06-09 12:20:00,84.7,69.8,30.13,SSW,207,0.0,0.0,61,0.00,,SKC,0.00,VWS V14.01,2013-06-09 16:20:00,
2013-06-09 12:25:00,85.0,70.1,30.13,WSW,240,4.0,0.0,61,0.00,,SKC,0.00,VWS V14.01,2013-06-09 16:25:00,
2013-06-09 12:30:00,85.2,69.3,30.13,South,171,0.0,0.0,59,0.00,,SKC,0.00,VWS V14.01,2013-06-09 16:30:00,
2013-06-09 12:35:00,85.6,70.6,30.12,SW,232,4.0,0.0,61,0.00,,SKC,0.00,VWS V14.01,2013-06-09 16:35:00,
2013-06-09 12:40:00,85.4,69.0,30.12,SW,228,1.0,0.0,58,0.00,,SKC,0.00,VWS V14.01,2013-06-09 16:40:00,
2013-06-09 12:46:00,85.2,67.8,30.12,SSW,204,3.0,0.0,56,0.00,,SKC,0.00,VWS V14.01,2013-06-09 16:46:00,
2013-06-09 12:52:00,85.6,68.6,30.12,SSE,162,1.0,0.0,57,0.00,,SKC,0.00,VWS V14.01,2013-06-09 16:52:00,
2013-06-09 12:58:00,85.6,68.6,30.12,West,262,1.0,0.0,57,0.00,,SKC,0.00,VWS V14.01,2013-06-09 16:58:00,
2013-06-09 13:04:00,85.8,69.8,30.11,SE,134,3.0,0.0,59,0.00,,SKC,0.00,VWS V14.01,2013-06-09 17:04:00,
2013-06-09 13:10:00,85.8,66.7,30.11,East,84,1.0,0.0,53,0.00,,SKC,0.00,VWS V14.01,2013-06-09 17:10:00,
2013-06-09 13:15:00,86.1,68.6,30.11,WSW,250,1.0,0.0,56,0.00,,SKC,0.00,VWS V14.01,2013-06-09 17:15:00,
2013-06-09 13:20:00,86.2,68.2,30.11,WSW,245,2.0,0.0,55,0.00,,SKC,0.00,VWS V14.01,2013-06-09 17:20:00,
2013-06-09 13:26:00,85.8,69.3,30.11,SW,231,4.0,0.0,58,0.00,,SKC,0.00,VWS V14.01,2013-06-09 17:26:00,
2013-06-09 13:32:00,86.1,69.6,30.10,East,83,1.0,0.0,58,0.00,,SKC,0.00,VWS V14.01,2013-06-09 17:32:00,
2013-06-09 13:38:00,86.0,68.0,30.10,ESE,118,0.0,0.0,55,0.00,,SKC,0.00,VWS V14.01,2013-06-09 17:38:00,
2013-06-09 13:44:00,86.6,71.1,30.10,WSW,252,2.0,0.0,60,0.00,,SKC,0.00,VWS V14.01,2013-06-09 17:44:00,
2013-06-09 13:50:00,87.2,69.1,30.10,SW,233,1.0,0.0,55,0.00,,SKC,0.00,VWS V14.01,2013-06-09 17:50:00,
2013-06-09 13:55:00,86.7,68.1,30.10,SSW,197,1.0,0.0,54,0.00,,SKC,0.00,VWS V14.01,2013-06-09 17:55:00,
2013-06-09 14:02:00,86.2,69.2,30.09,SE,136,0.0,0.0,57,0.00,,SKC,0.00,VWS V14.01,2013-06-09 18:02:00,
2013-06-09 14:08:00,86.5,67.3,30.09,SSW,207,1.0,0.0,53,0.00,,SKC,0.00,VWS V14.01,2013-06-09 18:08:00,
2013-06-09 14:14:00,86.1,66.4,30.09,ENE,70,1.0,0.0,52,0.00,,SKC,0.00,VWS V14.01,2013-06-09 18:14:00,
2013-06-09 14:20:00,86.1,66.4,30.08,WSW,245,2.0,0.0,52,0.00,,SKC,0.00,VWS V14.01,2013-06-09 18:20:00,
2013-06-09 14:25:00,86.5,69.5,30.08,NE,34,1.0,0.0,57,0.00,,SKC,0.00,VWS V14.01,2013-06-09 18:25:00,
2013-06-09 14:30:00,86.0,68.0,30.08,ESE,107,2.0,0.0,55,0.00,,SKC,0.00,VWS V14.01,2013-06-09 18:30:00,
2013-06-09 14:35:00,85.5,68.0,30.07,North,11,1.0,0.0,56,0.00,,SKC,0.00,VWS V14.01,2013-06-09 18:35:00,
2013-06-09 14:40:00,85.9,69.9,30.07,ENE,77,2.0,0.0,59,0.00,,SKC,0.00,VWS V14.01,2013-06-09 18:40:00,
2013-06-09 14:45:00,86.1,69.6,30.07,SW,231,1.0,0.0,58,0.00,,SKC,0.00,VWS V14.01,2013-06-09 18:45:00,
2013-06-09 14:50:00,86.4,70.9,30.07,ENE,67,2.0,0.0,60,0.00,,SKC,0.00,VWS V14.01,2013-06-09 18:50:00,
2013-06-09 14:56:00,86.3,69.3,30.08,NNE,21,1.0,0.0,57,0.00,,SKC,0.00,VWS V14.01,2013-06-09 18:56:00,
2013-06-09 15:02:00,85.9,69.4,30.08,East,94,1.0,0.0,58,0.00,,SKC,0.00,VWS V14.01,2013-06-09 19:02:00,
2013-06-09 15:08:00,85.6,68.6,30.07,SSE,148,1.0,0.0,57,0.00,,SKC,0.00,VWS V14.01,2013-06-09 19:08:00,
2013-06-09 15:14:00,85.5,69.6,30.07,SE,143,0.0,0.0,59,0.00,,SKC,0.00,VWS V14.01,2013-06-09 19:14:00,
2013-06-09 15:20:00,85.9,68.9,30.07,SE,139,1.0,0.0,57,0.00,,SKC,0.00,VWS V14.01,2013-06-09 19:20:00,
2013-06-09 15:25:00,85.6,69.1,30.07,SSW,201,0.0,0.0,58,0.00,,SKC,0.00,VWS V14.01,2013-06-09 19:25:00,
2013-06-09 15:30:00,85.5,68.5,30.06,East,100,3.0,0.0,57,0.00,,SKC,0.00,VWS V14.01,2013-06-09 19:30:00,
2013-06-09 15:35:00,85.7,69.2,30.06,SSW,200,1.0,0.0,58,0.00,,SKC,0.00,VWS V14.01,2013-06-09 19:35:00,
2013-06-09 15:40:00,85.9,68.9,30.06,SE,124,4.0,0.0,57,0.00,,SKC,0.00,VWS V14.01,2013-06-09 19:40:00,
2013-06-09 15:45:00,85.4,68.4,30.06,East,94,3.0,0.0,57,0.00,,SKC,0.00,VWS V14.01,2013-06-09 19:45:00,
2013-06-09 15:51:00,85.2,69.8,30.05,ESE,114,1.0,0.0,60,0.00,,SKC,0.00,VWS V14.01,2013-06-09 19:51:00,
2013-06-09 15:57:00,85.3,71.3,30.05,ESE,115,4.0,0.0,63,0.00,,SKC,0.00,VWS V14.01,2013-06-09 19:57:00,
2013-06-09 16:03:00,85.8,72.7,30.05,East,98,3.0,0.0,65,0.00,,SKC,0.00,VWS V14.01,2013-06-09 20:03:00,
2013-06-09 16:09:00,86.0,71.5,30.05,SSE,156,2.0,0.0,62,0.00,,SKC,0.00,VWS V14.01,2013-06-09 20:09:00,
2013-06-09 16:15:00,85.8,71.3,30.05,East,91,2.0,0.0,62,0.00,,SKC,0.00,VWS V14.01,2013-06-09 20:15:00,
2013-06-09 16:20:00,85.6,71.6,30.05,South,174,1.0,0.0,63,0.00,,SKC,0.00,VWS V14.01,2013-06-09 20:20:00,
2013-06-09 16:27:00,84.9,70.9,30.05,ENE,68,3.0,0.0,63,0.00,,SKC,0.00,VWS V14.01,2013-06-09 20:27:00,
2013-06-09 16:33:00,84.3,69.9,30.05,ENE,63,1.0,0.0,62,0.00,,SKC,0.00,VWS V14.01,2013-06-09 20:33:00,
2013-06-09 16:39:00,84.1,70.2,30.05,ESE,107,0.0,0.0,63,0.00,,SKC,0.00,VWS V14.01,2013-06-09 20:39:00,
2013-06-09 16:45:00,83.9,70.0,30.05,SSW,210,4.0,0.0,63,0.00,,SKC,0.00,VWS V14.01,2013-06-09 20:45:00,
2013-06-09 16:50:00,83.7,70.2,30.05,SE,136,1.0,0.0,64,0.00,,SKC,0.00,VWS V14.01,2013-06-09 20:50:00,
2013-06-09 16:55:00,83.6,70.1,30.05,ESE,107,2.0,0.0,64,0.00,,SKC,0.00,VWS V14.01,2013-06-09 20:55:00,
2013-06-09 17:00:00,83.3,70.3,30.05,SW,225,0.0,0.0,65,0.00,,SKC,0.00,VWS V14.01,2013-06-09 21:00:00,
2013-06-09 17:07:00,83.0,69.1,30.05,SSW,207,2.0,0.0,63,0.00,,SKC,0.00,VWS V14.01,2013-06-09 21:07:00,
2013-06-09 17:13:00,82.9,69.9,30.05,East,98,2.0,0.0,65,0.00,,SKC,0.00,VWS V14.01,2013-06-09 21:13:00,
2013-06-09 17:19:00,82.7,69.8,30.05,ESE,122,2.0,0.0,65,0.00,,SKC,0.00,VWS V14.01,2013-06-09 21:19:00,
2013-06-09 17:25:00,82.5,69.1,30.05,SW,219,0.0,0.0,64,0.00,,SKC,0.00,VWS V14.01,2013-06-09 21:25:00,
2013-06-09 17:30:00,82.3,69.8,30.05,SE,124,0.0,0.0,66,0.00,,SKC,0.00,VWS V14.01,2013-06-09 21:30:00,
2013-06-09 17:35:00,82.2,70.6,30.05,ESE,123,0.0,0.0,68,0.00,,SKC,0.00,VWS V14.01,2013-06-09 21:35:00,
2013-06-09 17:41:00,81.8,70.2,30.06,East,91,1.0,0.0,68,0.00,,SKC,0.00,VWS V14.01,2013-06-09 21:41:00,
2013-06-09 17:47:00,81.6,70.0,30.05,SW,226,2.0,0.0,68,0.00,,SKC,0.00,VWS V14.01,2013-06-09 21:47:00,
2013-06-09 17:53:00,81.4,70.3,30.06,East,79,3.0,0.0,69,0.00,,SKC,0.00,VWS V14.01,2013-06-09 21:53:00,
2013-06-09 17:59:00,81.2,70.5,30.06,SW,228,3.0,0.0,70,0.00,,SKC,0.00,VWS V14.01,2013-06-09 21:59:00,
2013-06-09 18:05:00,81.0,70.7,30.06,South,172,4.0,0.0,71,0.00,,SKC,0.00,VWS V14.01,2013-06-09 22:05:00,
2013-06-09 18:10:00,80.8,70.5,30.06,SW,223,2.0,0.0,71,0.00,,SKC,0.00,VWS V14.01,2013-06-09 22:10:00,
2013-06-09 18:15:00,80.6,70.8,30.06,SSW,204,2.0,0.0,72,0.00,,SKC,0.00,VWS V14.01,2013-06-09 22:15:00,
2013-06-09 18:20:00,80.2,71.6,30.06,SW,217,0.0,0.0,75,0.00,,SKC,0.00,VWS V14.01,2013-06-09 22:20:00,
2013-06-09 18:25:00,79.5,71.3,30.06,SSW,211,4.0,0.0,76,0.00,,SKC,0.00,VWS V14.01,2013-06-09 22:25:00,
2013-06-09 18:30:00,78.7,71.6,30.06,SW,226,3.0,0.0,79,0.00,,SKC,0.00,VWS V14.01,2013-06-09 22:30:00,
2013-06-09 18:35:00,78.0,71.3,30.06,SSW,203,2.0,0.0,80,0.00,,SKC,0.00,VWS V14.01,2013-06-09 22:35:00,
2013-06-09 18:40:00,77.4,71.1,30.06,SW,233,3.0,0.0,81,0.00,,SKC,0.00,VWS V14.01,2013-06-09 22:40:00,
2013-06-09 18:46:00,76.9,71.3,30.07,SSW,205,4.0,0.0,83,0.00,,SKC,0.00,VWS V14.01,2013-06-09 22:46:00,
2013-06-09 18:52:00,76.4,71.2,30.07,SW,231,5.0,0.0,84,0.01,,SKC,0.01,VWS V14.01,2013-06-09 22:52:00,
2013-06-09 18:58:00,76.0,71.5,30.07,WSW,243,3.0,0.0,86,0.01,,SKC,0.01,VWS V14.01,2013-06-09 22:58:00,
2013-06-09 19:04:00,75.6,71.5,30.07,WSW,250,0.0,0.0,87,0.01,,SKC,0.01,VWS V14.01,2013-06-09 23:04:00,
2013-06-09 19:10:00,75.2,71.4,30.08,SW,214,3.0,0.0,88,0.01,,SKC,0.01,VWS V14.01,2013-06-09 23:10:00,
2013-06-09 19:15:00,75.0,71.9,30.08,SSW,204,1.0,0.0,90,0.01,,SKC,0.01,VWS V14.01,2013-06-09 23:15:00,
2013-06-09 19:20:00,74.8,71.3,30.08,East,96,0.0,0.0,89,0.01,,SKC,0.01,VWS V14.01,2013-06-09 23:20:00,
2013-06-09 19:25:00,74.6,71.5,30.09,ESE,103,2.0,0.0,90,0.01,,SKC,0.01,VWS V14.01,2013-06-09 23:25:00,
2013-06-09 19:30:00,74.1,70.7,30.09,WSW,240,2.0,0.0,89,0.01,,SKC,0.01,VWS V14.01,2013-06-09 23:30:00,
2013-06-09 19:36:00,73.6,70.2,30.09,South,183,0.0,0.0,89,0.01,,SKC,0.01,VWS V14.01,2013-06-09 23:36:00,
2013-06-09 19:42:00,73.3,70.2,30.09,ENE,78,1.0,0.0,90,0.01,,SKC,0.01,VWS V14.01,2013-06-09 23:42:00,
2013-06-09 19:48:00,72.7,69.6,30.09,East,101,0.0,0.0,90,0.01,,SKC,0.01,VWS V14.01,2013-06-09 23:48:00,
2013-06-09 19:54:00,72.5,69.4,30.09,SW,221,0.0,0.0,90,0.00,,SKC,0.01,VWS V14.01,2013-06-09 23:54:00,
2013-06-09 20:00:00,72.4,69.6,30.09,SW,217,1.0,0.0,91,0.00,,SKC,0.01,VWS V14.01,2013-06-10 00:00:00,
2013-06-09 20:05:00,72.3,69.5,30.09,WSW,238,1.0,0.0,91,0.00,,SKC,0.01,VWS V14.01,2013-06-10 00:05:00,
2013-06-09 20:10:00,72.3,69.8,30.08,SW,222,0.0,0.0,92,0.00,,SKC,0.01,VWS V14.01,2013-06-10 00:10:00,
2013-06-09 20:15:00,72.3,69.8,30.09,SW,214,2.0,0.0,92,0.00,,SKC,0.01,VWS V14.01,2013-06-10 00:15:00,
2013-06-09 20:20:00,72.4,69.9,30.09,SW,226,0.0,0.0,92,0.00,,SKC,0.01,VWS V14.01,2013-06-10 00:20:00,
2013-06-09 20:26:00,72.5,70.4,30.08,SSW,207,2.0,0.0,93,0.00,,SKC,0.01,VWS V14.01,2013-06-10 00:26:00,
2013-06-09 20:32:00,72.6,70.5,30.08,SW,229,5.0,0.0,93,0.00,,SKC,0.01,VWS V14.01,2013-06-10 00:32:00,
2013-06-09 20:38:00,72.7,70.2,30.08,South,177,1.0,0.0,92,0.00,,SKC,0.01,VWS V14.01,2013-06-10 00:38:00,
2013-06-09 20:44:00,72.7,70.2,30.08,SW,228,2.0,0.0,92,0.00,,SKC,0.01,VWS V14.01,2013-06-10 00:44:00,
2013-06-09 20:50:00,72.8,70.0,30.08,WSW,256,6.0,0.0,91,0.00,,SKC,0.01,VWS V14.01,2013-06-10 00:50:00,
2013-06-09 20:56:00,72.8,70.0,30.08,SSW,201,1.0,0.0,91,0.00,,SKC,0.01,VWS V14.01,2013-06-10 00:56:00,
2013-06-09 21:02:00,72.7,69.9,30.09,SSE,156,0.0,0.0,91,0.00,,SKC,0.01,VWS V14.01,2013-06-10 01:02:00,
2013-06-09 21:08:00,72.6,69.5,30.09,South,184,2.0,0.0,90,0.00,,SKC,0.01,VWS V14.01,2013-06-10 01:08:00,
2013-06-09 21:14:00,72.4,69.3,30.08,WSW,249,4.0,0.0,90,0.00,,SKC,0.01,VWS V14.01,2013-06-10 01:14:00,
2013-06-09 21:20:00,72.3,69.2,30.09,SW,227,1.0,0.0,90,0.00,,SKC,0.01,VWS V14.01,2013-06-10 01:20:00,
2013-06-09 21:25:00,72.1,69.0,30.09,SW,222,1.0,0.0,90,0.00,,SKC,0.01,VWS V14.01,2013-06-10 01:25:00,
2013-06-09 21:30:00,72.0,68.9,30.08,SSW,207,1.0,0.0,90,0.01,,SKC,0.02,VWS V14.01,2013-06-10 01:30:00,
2013-06-09 21:35:00,71.9,69.1,30.08,SSW,198,0.0,0.0,91,0.01,,SKC,0.02,VWS V14.01,2013-06-10 01:35:00,
2013-06-09 21:40:00,71.7,68.9,30.09,SSW,200,0.0,0.0,91,0.01,,SKC,0.02,VWS V14.01,2013-06-10 01:40:00,
2013-06-09 21:45:00,71.6,68.8,30.09,SSW,193,0.0,0.0,91,0.01,,SKC,0.02,VWS V14.01,2013-06-10 01:45:00,
2013-06-09 21:50:00,71.4,69.0,30.09,SSW,203,0.0,0.0,92,0.01,,SKC,0.02,VWS V14.01,2013-06-10 01:50:00,
2013-06-09 21:57:00,71.3,68.9,30.09,SSW,198,0.0,0.0,92,0.01,,SKC,0.02,VWS V14.01,2013-06-10 01:57:00,
2013-06-09 22:03:00,71.1,68.7,30.09,SSW,198,0.0,0.0,92,0.01,,SKC,0.02,VWS V14.01,2013-06-10 02:03:00,
2013-06-09 22:09:00,71.0,68.9,30.09,SSW,198,0.0,0.0,93,0.01,,SKC,0.02,VWS V14.01,2013-06-10 02:09:00,
2013-06-09 22:15:00,70.8,68.7,30.09,SSW,198,0.0,0.0,93,0.01,,SKC,0.02,VWS V14.01,2013-06-10 02:15:00,
2013-06-09 22:20:00,70.7,68.6,30.09,SSW,198,0.0,0.0,93,0.02,,SKC,0.03,VWS V14.01,2013-06-10 02:20:00,
2013-06-09 22:25:00,70.6,68.5,30.09,SSW,198,0.0,0.0,93,0.02,,SKC,0.03,VWS V14.01,2013-06-10 02:25:00,
2013-06-09 22:30:00,70.5,68.7,30.09,SSW,198,0.0,0.0,94,0.02,,SKC,0.03,VWS V14.01,2013-06-10 02:30:00,
2013-06-09 22:35:00,70.5,68.7,30.09,SW,221,1.0,0.0,94,0.01,,SKC,0.03,VWS V14.01,2013-06-10 02:35:00,
2013-06-09 22:40:00,70.5,68.7,30.09,South,190,0.0,0.0,94,0.01,,SKC,0.03,VWS V14.01,2013-06-10 02:40:00,
2013-06-09 22:45:00,70.5,69.0,30.09,SSW,212,0.0,0.0,95,0.01,,SKC,0.03,VWS V14.01,2013-06-10 02:45:00,
2013-06-09 22:50:00,70.4,68.9,30.09,SSW,207,1.0,0.0,95,0.01,,SKC,0.03,VWS V14.01,2013-06-10 02:50:00,
2013-06-09 22:55:00,70.4,68.9,30.09,SSW,203,1.0,0.0,95,0.01,,SKC,0.03,VWS V14.01,2013-06-10 02:55:00,
2013-06-09 23:00:00,70.3,68.8,30.09,SW,226,1.0,0.0,95,0.01,,SKC,0.03,VWS V14.01,2013-06-10 03:00:00,
2013-06-09 23:05:00,70.3,68.8,30.09,SSW,207,0.0,0.0,95,0.01,,SKC,0.03,VWS V14.01,2013-06-10 03:05:00,
2013-06-09 23:10:00,70.3,68.8,30.09,SSW,198,0.0,0.0,95,0.01,,SKC,0.03,VWS V14.01,2013-06-10 03:10:00,
2013-06-09 23:15:00,70.3,68.8,30.09,South,191,2.0,0.0,95,0.01,,SKC,0.03,VWS V14.01,2013-06-10 03:15:00,
2013-06-09 23:23:00,70.3,69.1,30.09,SW,224,2.0,0.0,96,0.01,,SKC,0.03,VWS V14.01,2013-06-10 03:23:00,